Terminal Aerodrome Forecast
Issued by NWS Green Bay, WI

Home | Current Version | Previous Version | Text Only | Print | Product List | Glossary Off
Versions: 1 2 3 4 5 6 7 8 9 10 11 12 13 14 15 16 17 18 19 20 21 22 23 24 25 26

000
FTUS43 KGRB 301133
TAFGRB
TAF
KGRB 301133Z 3012/3112 03011G20KT 6SM -RADZ BR SCT007 OVC022
      TEMPO 3012/3014 3SM RA BR BKN007
     FM301400 02014G25KT P6SM -SHRA SCT012 OVC035
      TEMPO 3014/3017 5SM -RA BR BKN012
     FM301900 03017G28KT P6SM SCT025 BKN100
     FM302300 03013KT P6SM SCT035 BKN250=

USA.gov is the U.S. government's official web portal to all federal, state and local government web resources and services.